createdAt,value
2018-02-15T00:01:50.000Z,14.3
2018-02-15T00:11:52.000Z,14.3
2018-02-15T00:21:50.000Z,14.2
2018-02-15T00:31:50.000Z,14.3
2018-02-15T00:41:50.000Z,14.1
2018-02-15T00:51:50.000Z,14.2
2018-02-15T01:01:50.000Z,14.2
2018-02-15T01:11:50.000Z,14
2018-02-15T01:21:50.000Z,14.1
2018-02-15T01:31:50.000Z,13.9
2018-02-15T01:41:50.000Z,14.1
2018-02-15T01:51:50.000Z,14
2018-02-15T02:01:50.000Z,13.9
2018-02-15T02:11:50.000Z,13.9
2018-02-15T02:21:50.000Z,13.8
2018-02-15T02:31:50.000Z,14
2018-02-15T02:41:50.000Z,13.8
2018-02-15T02:51:50.000Z,13.9
2018-02-15T03:01:50.000Z,13.8
2018-02-15T03:11:50.000Z,13.8
2018-02-15T03:21:50.000Z,13.8
2018-02-15T03:31:50.000Z,13.8
2018-02-15T03:41:50.000Z,13.7
2018-02-15T03:51:50.000Z,13.6
2018-02-15T04:01:50.000Z,13.6
2018-02-15T04:11:50.000Z,13.6
2018-02-15T04:21:50.000Z,13.7
2018-02-15T04:31:50.000Z,13.6
2018-02-15T04:41:50.000Z,13.6
2018-02-15T04:51:51.000Z,13.6
2018-02-15T05:01:51.000Z,13.6
2018-02-15T05:11:51.000Z,13.7
2018-02-15T05:21:51.000Z,13.7
2018-02-15T05:31:51.000Z,13.5
2018-02-15T05:41:51.000Z,13.4
2018-02-15T05:51:51.000Z,13.4
2018-02-15T06:01:51.000Z,13.1
2018-02-15T06:11:51.000Z,13.3
2018-02-15T06:21:51.000Z,14.4
2018-02-15T06:31:51.000Z,15.2
2018-02-15T06:41:51.000Z,15.7
2018-02-15T06:51:51.000Z,16
2018-02-15T07:01:51.000Z,16.1
2018-02-15T07:11:51.000Z,16.3
2018-02-15T07:21:51.000Z,16.5
2018-02-15T07:31:51.000Z,16.8
2018-02-15T07:41:51.000Z,17.2
2018-02-15T07:51:51.000Z,17.4
2018-02-15T08:01:51.000Z,17.4
2018-02-15T08:11:51.000Z,17.4
2018-02-15T08:21:51.000Z,17.6
2018-02-15T08:31:51.000Z,17.5
2018-02-15T08:41:51.000Z,17.6
2018-02-15T08:51:51.000Z,17.7
2018-02-15T09:01:51.000Z,17.7
2018-02-15T09:11:51.000Z,17.8
2018-02-15T09:21:51.000Z,17.7
2018-02-15T09:31:51.000Z,17.5
2018-02-15T09:41:51.000Z,17.7
2018-02-15T09:51:51.000Z,17.9
2018-02-15T10:01:51.000Z,18
2018-02-15T10:11:51.000Z,17.9
2018-02-15T10:21:51.000Z,17.9
2018-02-15T10:31:51.000Z,17.9
2018-02-15T10:41:51.000Z,17.9
2018-02-15T10:51:51.000Z,18
2018-02-15T11:01:51.000Z,18
2018-02-15T11:11:51.000Z,18
2018-02-15T11:21:51.000Z,18
2018-02-15T11:31:51.000Z,18.2
2018-02-15T11:41:51.000Z,18.1
2018-02-15T11:51:53.000Z,18.1
2018-02-15T12:01:52.000Z,18.2
2018-02-15T12:11:52.000Z,18.2
2018-02-15T12:21:52.000Z,18.2
2018-02-15T12:31:52.000Z,18.1
2018-02-15T12:41:52.000Z,18.3
2018-02-15T12:51:52.000Z,18.5
2018-02-15T13:01:52.000Z,18.4
2018-02-15T13:11:52.000Z,19.1
2018-02-15T13:21:52.000Z,19
2018-02-15T13:31:52.000Z,19.3
2018-02-15T13:41:52.000Z,19.3
2018-02-15T13:51:52.000Z,19
2018-02-15T14:01:52.000Z,18.8
2018-02-15T14:11:52.000Z,18.7
2018-02-15T14:21:52.000Z,19.2
2018-02-15T14:31:52.000Z,19.4
2018-02-15T14:41:53.000Z,19.4
2018-02-15T14:51:52.000Z,19.2
2018-02-15T15:01:52.000Z,18.9
2018-02-15T15:11:52.000Z,18.8
2018-02-15T15:21:52.000Z,18.6
2018-02-15T15:31:52.000Z,18.8
2018-02-15T15:41:52.000Z,18.8
2018-02-15T15:51:52.000Z,18.9
2018-02-15T16:01:54.000Z,18.8
2018-02-15T16:11:52.000Z,18.7
2018-02-15T16:21:52.000Z,18.7
2018-02-15T16:31:52.000Z,18.8
2018-02-15T16:41:52.000Z,18.7
2018-02-15T16:51:54.000Z,18.8
2018-02-15T17:01:52.000Z,18.9
2018-02-15T17:11:52.000Z,18.9
2018-02-15T17:21:53.000Z,18.8
2018-02-15T17:31:52.000Z,18.8
2018-02-15T17:41:55.000Z,18.8
2018-02-15T17:51:52.000Z,18.7
2018-02-15T18:01:52.000Z,18.9
2018-02-15T18:11:52.000Z,18.9
2018-02-15T18:21:52.000Z,18.9
2018-02-15T18:31:52.000Z,18.9
2018-02-15T18:41:52.000Z,18.9
2018-02-15T18:51:53.000Z,18.9
2018-02-15T19:01:53.000Z,18.9
2018-02-15T19:11:53.000Z,18.9
2018-02-15T19:21:53.000Z,18.9
2018-02-15T19:31:56.000Z,18.9
2018-02-15T19:41:53.000Z,18.9
2018-02-15T19:51:53.000Z,19
2018-02-15T20:01:53.000Z,18.9
2018-02-15T20:11:53.000Z,18.9
2018-02-15T20:21:53.000Z,18.9
2018-02-15T20:31:53.000Z,18.9
2018-02-15T20:41:57.000Z,18.9
2018-02-15T20:51:53.000Z,18.9
2018-02-15T21:11:53.000Z,18.9
2018-02-15T21:21:53.000Z,19
2018-02-15T21:31:53.000Z,19
2018-02-15T21:41:53.000Z,18.8
2018-02-15T21:51:53.000Z,19
2018-02-15T22:01:53.000Z,19
2018-02-15T22:11:53.000Z,18.9
2018-02-15T22:21:53.000Z,19
2018-02-15T22:31:53.000Z,18.7
2018-02-15T22:41:53.000Z,17.4
2018-02-15T22:51:53.000Z,16.5
2018-02-15T23:01:53.000Z,16.3
2018-02-15T23:11:53.000Z,15.9
2018-02-15T23:21:53.000Z,15.7
2018-02-15T23:31:53.000Z,15.6
2018-02-15T23:41:53.000Z,15.4
2018-02-15T23:51:54.000Z,15.3
